sensor_id;sensor_type;location;lat;lon;timestamp;P1;durP1;ratioP1;P2;durP2;ratioP2
25153;SDS011;47555;51.038;6.280;2022-11-25T00:00:45;8.40;;;1.95;;
25153;SDS011;47555;51.038;6.280;2022-11-25T00:03:11;9.23;;;3.42;;
25153;SDS011;47555;51.038;6.280;2022-11-25T00:05:36;7.72;;;2.10;;
25153;SDS011;47555;51.038;6.280;2022-11-25T00:08:02;12.82;;;2.15;;
25153;SDS011;47555;51.038;6.280;2022-11-25T00:10:27;7.32;;;1.73;;
25153;SDS011;47555;51.038;6.280;2022-11-25T00:12:53;6.82;;;2.20;;
25153;SDS011;47555;51.038;6.280;2022-11-25T00:15:19;5.20;;;2.55;;
25153;SDS011;47555;51.038;6.280;2022-11-25T00:17:44;7.40;;;2.50;;
25153;SDS011;47555;51.038;6.280;2022-11-25T00:20:10;5.68;;;1.88;;
25153;SDS011;47555;51.038;6.280;2022-11-25T00:22:36;7.47;;;2.03;;
25153;SDS011;47555;51.038;6.280;2022-11-25T00:25:01;10.63;;;2.53;;
25153;SDS011;47555;51.038;6.280;2022-11-25T00:27:27;6.60;;;2.03;;
25153;SDS011;47555;51.038;6.280;2022-11-25T00:29:52;7.40;;;2.03;;
25153;SDS011;47555;51.038;6.280;2022-11-25T00:32:18;10.73;;;2.13;;
25153;SDS011;47555;51.038;6.280;2022-11-25T00:34:43;5.90;;;2.33;;
25153;SDS011;47555;51.038;6.280;2022-11-25T00:37:09;9.23;;;2.75;;
25153;SDS011;47555;51.038;6.280;2022-11-25T00:39:34;7.72;;;2.08;;
25153;SDS011;47555;51.038;6.280;2022-11-25T00:42:00;10.43;;;2.17;;
25153;SDS011;47555;51.038;6.280;2022-11-25T00:44:44;6.05;;;2.00;;
25153;SDS011;47555;51.038;6.280;2022-11-25T00:47:13;11.95;;;2.53;;
25153;SDS011;47555;51.038;6.280;2022-11-25T00:49:44;11.90;;;2.50;;
25153;SDS011;47555;51.038;6.280;2022-11-25T00:52:16;8.60;;;2.10;;
25153;SDS011;47555;51.038;6.280;2022-11-25T00:54:43;8.35;;;2.15;;
25153;SDS011;47555;51.038;6.280;2022-11-25T00:57:10;6.35;;;2.10;;
25153;SDS011;47555;51.038;6.280;2022-11-25T00:59:36;12.70;;;2.50;;
25153;SDS011;47555;51.038;6.280;2022-11-25T01:02:01;9.10;;;1.88;;
25153;SDS011;47555;51.038;6.280;2022-11-25T01:04:27;8.48;;;2.10;;
25153;SDS011;47555;51.038;6.280;2022-11-25T01:06:53;6.75;;;2.15;;
25153;SDS011;47555;51.038;6.280;2022-11-25T01:09:20;7.70;;;1.90;;
25153;SDS011;47555;51.038;6.280;2022-11-25T01:11:48;12.63;;;2.45;;
25153;SDS011;47555;51.038;6.280;2022-11-25T01:14:14;10.07;;;2.35;;
25153;SDS011;47555;51.038;6.280;2022-11-25T01:16:40;8.15;;;2.20;;
25153;SDS011;47555;51.038;6.280;2022-11-25T01:19:05;7.00;;;2.00;;
25153;SDS011;47555;51.038;6.280;2022-11-25T01:21:32;9.07;;;2.22;;
25153;SDS011;47555;51.038;6.280;2022-11-25T01:23:58;6.80;;;2.17;;
25153;SDS011;47555;51.038;6.280;2022-11-25T01:26:25;7.10;;;2.80;;
25153;SDS011;47555;51.038;6.280;2022-11-25T01:28:52;11.45;;;3.13;;
25153;SDS011;47555;51.038;6.280;2022-11-25T01:31:20;9.05;;;2.20;;
25153;SDS011;47555;51.038;6.280;2022-11-25T01:33:47;8.95;;;2.85;;
25153;SDS011;47555;51.038;6.280;2022-11-25T01:36:17;8.18;;;2.60;;
25153;SDS011;47555;51.038;6.280;2022-11-25T01:38:43;8.60;;;3.63;;
25153;SDS011;47555;51.038;6.280;2022-11-25T01:41:12;11.90;;;2.85;;
25153;SDS011;47555;51.038;6.280;2022-11-25T01:43:38;7.75;;;2.85;;
25153;SDS011;47555;51.038;6.280;2022-11-25T01:48:54;8.60;;;3.00;;
25153;SDS011;47555;51.038;6.280;2022-11-25T01:51:27;11.68;;;2.70;;
25153;SDS011;47555;51.038;6.280;2022-11-25T01:54:00;15.00;;;2.70;;
25153;SDS011;47555;51.038;6.280;2022-11-25T01:56:27;11.23;;;2.67;;
25153;SDS011;47555;51.038;6.280;2022-11-25T01:58:57;7.97;;;2.72;;
25153;SDS011;47555;51.038;6.280;2022-11-25T02:01:23;8.73;;;2.03;;
25153;SDS011;47555;51.038;6.280;2022-11-25T02:03:49;10.20;;;2.08;;
25153;SDS011;47555;51.038;6.280;2022-11-25T02:06:25;9.63;;;2.95;;
25153;SDS011;47555;51.038;6.280;2022-11-25T02:08:56;12.18;;;2.20;;
25153;SDS011;47555;51.038;6.280;2022-11-25T02:11:29;13.30;;;2.40;;
25153;SDS011;47555;51.038;6.280;2022-11-25T02:13:56;8.27;;;2.13;;
25153;SDS011;47555;51.038;6.280;2022-11-25T02:16:23;12.20;;;2.85;;
25153;SDS011;47555;51.038;6.280;2022-11-25T02:18:49;9.02;;;2.28;;
25153;SDS011;47555;51.038;6.280;2022-11-25T02:21:19;6.40;;;1.88;;
25153;SDS011;47555;51.038;6.280;2022-11-25T02:23:51;10.13;;;2.00;;
25153;SDS011;47555;51.038;6.280;2022-11-25T02:26:23;3.97;;;1.63;;
25153;SDS011;47555;51.038;6.280;2022-11-25T02:28:49;11.15;;;1.88;;
25153;SDS011;47555;51.038;6.280;2022-11-25T02:31:19;8.38;;;1.85;;
25153;SDS011;47555;51.038;6.280;2022-11-25T02:33:46;6.97;;;1.83;;
25153;SDS011;47555;51.038;6.280;2022-11-25T02:36:12;7.90;;;1.90;;
25153;SDS011;47555;51.038;6.280;2022-11-25T02:38:47;7.75;;;2.05;;
25153;SDS011;47555;51.038;6.280;2022-11-25T02:41:17;5.90;;;1.77;;
25153;SDS011;47555;51.038;6.280;2022-11-25T02:43:46;10.23;;;2.22;;
25153;SDS011;47555;51.038;6.280;2022-11-25T02:46:13;9.65;;;2.20;;
25153;SDS011;47555;51.038;6.280;2022-11-25T02:48:41;3.80;;;1.85;;
25153;SDS011;47555;51.038;6.280;2022-11-25T02:51:08;5.82;;;1.90;;
25153;SDS011;47555;51.038;6.280;2022-11-25T02:53:36;4.60;;;1.50;;
25153;SDS011;47555;51.038;6.280;2022-11-25T02:56:02;6.80;;;2.47;;
25153;SDS011;47555;51.038;6.280;2022-11-25T02:58:28;6.82;;;2.10;;
25153;SDS011;47555;51.038;6.280;2022-11-25T03:00:54;7.72;;;1.73;;
25153;SDS011;47555;51.038;6.280;2022-11-25T03:03:19;8.63;;;1.77;;
25153;SDS011;47555;51.038;6.280;2022-11-25T03:05:45;7.10;;;2.00;;
25153;SDS011;47555;51.038;6.280;2022-11-25T03:08:11;6.60;;;1.75;;
25153;SDS011;47555;51.038;6.280;2022-11-25T03:10:36;4.85;;;1.90;;
25153;SDS011;47555;51.038;6.280;2022-11-25T03:13:03;5.60;;;2.00;;
25153;SDS011;47555;51.038;6.280;2022-11-25T03:15:30;7.10;;;2.20;;
25153;SDS011;47555;51.038;6.280;2022-11-25T03:17:56;10.30;;;2.22;;
25153;SDS011;47555;51.038;6.280;2022-11-25T03:20:22;6.18;;;1.85;;
25153;SDS011;47555;51.038;6.280;2022-11-25T03:22:48;7.35;;;2.13;;
25153;SDS011;47555;51.038;6.280;2022-11-25T03:25:14;8.50;;;2.00;;
25153;SDS011;47555;51.038;6.280;2022-11-25T03:27:40;7.05;;;1.70;;
25153;SDS011;47555;51.038;6.280;2022-11-25T03:30:07;6.68;;;1.83;;
25153;SDS011;47555;51.038;6.280;2022-11-25T03:32:37;6.82;;;1.92;;
25153;SDS011;47555;51.038;6.280;2022-11-25T03:35:03;8.20;;;1.75;;
25153;SDS011;47555;51.038;6.280;2022-11-25T03:37:32;5.10;;;1.65;;
25153;SDS011;47555;51.038;6.280;2022-11-25T03:39:58;6.32;;;2.03;;
25153;SDS011;47555;51.038;6.280;2022-11-25T03:42:23;7.35;;;2.20;;
25153;SDS011;47555;51.038;6.280;2022-11-25T03:44:49;9.70;;;2.00;;
25153;SDS011;47555;51.038;6.280;2022-11-25T03:47:14;14.23;;;2.45;;
25153;SDS011;47555;51.038;6.280;2022-11-25T03:49:40;7.78;;;1.90;;
25153;SDS011;47555;51.038;6.280;2022-11-25T03:52:05;5.93;;;1.83;;
25153;SDS011;47555;51.038;6.280;2022-11-25T03:54:31;6.07;;;1.63;;
25153;SDS011;47555;51.038;6.280;2022-11-25T03:56:57;7.28;;;1.77;;
25153;SDS011;47555;51.038;6.280;2022-11-25T03:59:22;4.80;;;1.60;;
25153;SDS011;47555;51.038;6.280;2022-11-25T04:01:50;6.80;;;1.52;;
25153;SDS011;47555;51.038;6.280;2022-11-25T04:04:16;7.57;;;1.80;;
25153;SDS011;47555;51.038;6.280;2022-11-25T04:06:41;6.90;;;2.05;;
25153;SDS011;47555;51.038;6.280;2022-11-25T04:09:07;7.57;;;1.58;;
25153;SDS011;47555;51.038;6.280;2022-11-25T04:11:33;4.97;;;1.60;;
25153;SDS011;47555;51.038;6.280;2022-11-25T04:14:18;5.65;;;1.92;;
25153;SDS011;47555;51.038;6.280;2022-11-25T04:16:43;6.03;;;1.60;;
25153;SDS011;47555;51.038;6.280;2022-11-25T04:19:09;7.40;;;1.63;;
25153;SDS011;47555;51.038;6.280;2022-11-25T04:21:36;5.20;;;1.92;;
25153;SDS011;47555;51.038;6.280;2022-11-25T04:24:02;6.97;;;1.80;;
25153;SDS011;47555;51.038;6.280;2022-11-25T04:26:28;4.85;;;2.10;;
25153;SDS011;47555;51.038;6.280;2022-11-25T04:28:53;13.02;;;2.38;;
25153;SDS011;47555;51.038;6.280;2022-11-25T04:31:19;6.15;;;1.92;;
25153;SDS011;47555;51.038;6.280;2022-11-25T04:33:44;8.25;;;2.10;;
25153;SDS011;47555;51.038;6.280;2022-11-25T04:36:10;4.22;;;1.70;;
25153;SDS011;47555;51.038;6.280;2022-11-25T04:38:35;5.07;;;1.90;;
25153;SDS011;47555;51.038;6.280;2022-11-25T04:41:01;5.53;;;1.58;;
25153;SDS011;47555;51.038;6.280;2022-11-25T04:43:26;5.30;;;1.52;;
25153;SDS011;47555;51.038;6.280;2022-11-25T04:45:52;9.25;;;2.50;;
25153;SDS011;47555;51.038;6.280;2022-11-25T04:48:17;5.82;;;1.98;;
25153;SDS011;47555;51.038;6.280;2022-11-25T04:50:43;9.82;;;1.67;;
25153;SDS011;47555;51.038;6.280;2022-11-25T04:53:09;6.55;;;2.30;;
25153;SDS011;47555;51.038;6.280;2022-11-25T04:55:35;9.60;;;1.80;;
25153;SDS011;47555;51.038;6.280;2022-11-25T04:58:00;7.78;;;2.10;;
25153;SDS011;47555;51.038;6.280;2022-11-25T05:00:26;6.32;;;1.73;;
25153;SDS011;47555;51.038;6.280;2022-11-25T05:02:54;4.95;;;1.90;;
25153;SDS011;47555;51.038;6.280;2022-11-25T05:05:19;4.78;;;1.30;;
25153;SDS011;47555;51.038;6.280;2022-11-25T05:07:45;7.38;;;2.80;;
25153;SDS011;47555;51.038;6.280;2022-11-25T05:10:11;6.50;;;1.90;;
25153;SDS011;47555;51.038;6.280;2022-11-25T05:12:36;4.50;;;2.38;;
25153;SDS011;47555;51.038;6.280;2022-11-25T05:15:03;5.97;;;2.35;;
25153;SDS011;47555;51.038;6.280;2022-11-25T05:17:30;6.13;;;2.85;;
25153;SDS011;47555;51.038;6.280;2022-11-25T05:19:56;7.05;;;2.75;;
25153;SDS011;47555;51.038;6.280;2022-11-25T05:22:23;7.00;;;3.08;;
25153;SDS011;47555;51.038;6.280;2022-11-25T05:24:51;8.95;;;2.92;;
25153;SDS011;47555;51.038;6.280;2022-11-25T05:27:16;11.38;;;3.28;;
25153;SDS011;47555;51.038;6.280;2022-11-25T05:29:42;8.00;;;3.20;;
25153;SDS011;47555;51.038;6.280;2022-11-25T05:32:08;10.25;;;3.17;;
25153;SDS011;47555;51.038;6.280;2022-11-25T05:34:34;4.53;;;2.85;;
25153;SDS011;47555;51.038;6.280;2022-11-25T05:37:02;8.35;;;3.80;;
25153;SDS011;47555;51.038;6.280;2022-11-25T05:39:29;13.18;;;5.25;;
25153;SDS011;47555;51.038;6.280;2022-11-25T05:41:54;12.65;;;6.03;;
25153;SDS011;47555;51.038;6.280;2022-11-25T05:44:20;16.10;;;6.65;;
25153;SDS011;47555;51.038;6.280;2022-11-25T05:46:45;13.73;;;5.53;;
25153;SDS011;47555;51.038;6.280;2022-11-25T05:49:12;15.45;;;5.30;;
25153;SDS011;47555;51.038;6.280;2022-11-25T05:51:38;15.93;;;4.40;;
25153;SDS011;47555;51.038;6.280;2022-11-25T05:54:04;8.57;;;3.20;;
25153;SDS011;47555;51.038;6.280;2022-11-25T05:56:30;8.75;;;3.10;;
25153;SDS011;47555;51.038;6.280;2022-11-25T05:58:57;7.25;;;2.45;;
25153;SDS011;47555;51.038;6.280;2022-11-25T06:01:23;6.05;;;2.95;;
25153;SDS011;47555;51.038;6.280;2022-11-25T06:03:49;7.00;;;2.10;;
25153;SDS011;47555;51.038;6.280;2022-11-25T06:06:17;7.70;;;2.47;;
25153;SDS011;47555;51.038;6.280;2022-11-25T06:08:43;5.57;;;1.80;;
25153;SDS011;47555;51.038;6.280;2022-11-25T06:11:10;8.02;;;2.05;;
25153;SDS011;47555;51.038;6.280;2022-11-25T06:13:38;4.13;;;2.08;;
25153;SDS011;47555;51.038;6.280;2022-11-25T06:16:06;5.82;;;2.55;;
25153;SDS011;47555;51.038;6.280;2022-11-25T06:18:44;7.53;;;2.38;;
25153;SDS011;47555;51.038;6.280;2022-11-25T06:21:09;7.22;;;2.58;;
25153;SDS011;47555;51.038;6.280;2022-11-25T06:23:36;5.20;;;1.95;;
25153;SDS011;47555;51.038;6.280;2022-11-25T06:28:42;4.28;;;1.77;;
25153;SDS011;47555;51.038;6.280;2022-11-25T06:31:12;5.93;;;1.80;;
25153;SDS011;47555;51.038;6.280;2022-11-25T06:33:39;7.73;;;2.00;;
25153;SDS011;47555;51.038;6.280;2022-11-25T06:36:05;3.90;;;2.00;;
25153;SDS011;47555;51.038;6.280;2022-11-25T06:41:03;4.75;;;1.80;;
25153;SDS011;47555;51.038;6.280;2022-11-25T06:43:29;7.95;;;2.30;;
25153;SDS011;47555;51.038;6.280;2022-11-25T06:46:06;6.25;;;2.28;;
25153;SDS011;47555;51.038;6.280;2022-11-25T06:48:34;5.93;;;1.50;;
25153;SDS011;47555;51.038;6.280;2022-11-25T06:51:02;7.47;;;2.35;;
25153;SDS011;47555;51.038;6.280;2022-11-25T06:53:30;5.80;;;1.95;;
25153;SDS011;47555;51.038;6.280;2022-11-25T06:56:10;4.22;;;1.88;;
25153;SDS011;47555;51.038;6.280;2022-11-25T06:58:36;7.00;;;1.90;;
25153;SDS011;47555;51.038;6.280;2022-11-25T07:01:03;6.47;;;1.95;;
25153;SDS011;47555;51.038;6.280;2022-11-25T07:03:37;5.25;;;2.00;;
25153;SDS011;47555;51.038;6.280;2022-11-25T07:06:03;5.00;;;1.95;;
25153;SDS011;47555;51.038;6.280;2022-11-25T07:08:29;6.90;;;1.65;;
25153;SDS011;47555;51.038;6.280;2022-11-25T07:11:00;5.40;;;1.92;;
25153;SDS011;47555;51.038;6.280;2022-11-25T07:13:27;5.82;;;1.65;;
25153;SDS011;47555;51.038;6.280;2022-11-25T07:15:53;4.63;;;2.20;;
25153;SDS011;47555;51.038;6.280;2022-11-25T07:18:18;5.13;;;1.73;;
25153;SDS011;47555;51.038;6.280;2022-11-25T07:20:44;5.85;;;1.70;;
25153;SDS011;47555;51.038;6.280;2022-11-25T07:23:10;4.65;;;1.90;;
25153;SDS011;47555;51.038;6.280;2022-11-25T07:25:35;6.78;;;2.58;;
25153;SDS011;47555;51.038;6.280;2022-11-25T07:28:01;4.35;;;1.50;;
25153;SDS011;47555;51.038;6.280;2022-11-25T07:30:27;5.38;;;2.10;;
25153;SDS011;47555;51.038;6.280;2022-11-25T07:32:52;7.88;;;2.47;;
25153;SDS011;47555;51.038;6.280;2022-11-25T07:35:19;6.28;;;1.80;;
25153;SDS011;47555;51.038;6.280;2022-11-25T07:37:44;6.35;;;1.90;;
25153;SDS011;47555;51.038;6.280;2022-11-25T07:40:10;6.15;;;2.42;;
25153;SDS011;47555;51.038;6.280;2022-11-25T07:42:36;7.10;;;1.83;;
25153;SDS011;47555;51.038;6.280;2022-11-25T07:45:01;3.45;;;1.88;;
25153;SDS011;47555;51.038;6.280;2022-11-25T07:47:27;4.88;;;1.98;;
25153;SDS011;47555;51.038;6.280;2022-11-25T07:49:52;7.63;;;2.38;;
25153;SDS011;47555;51.038;6.280;2022-11-25T07:52:18;3.55;;;1.70;;
25153;SDS011;47555;51.038;6.280;2022-11-25T07:54:44;9.10;;;2.22;;
25153;SDS011;47555;51.038;6.280;2022-11-25T07:57:10;7.60;;;2.03;;
25153;SDS011;47555;51.038;6.280;2022-11-25T07:59:35;4.65;;;1.92;;
25153;SDS011;47555;51.038;6.280;2022-11-25T08:02:05;9.13;;;2.60;;
25153;SDS011;47555;51.038;6.280;2022-11-25T08:04:30;7.05;;;2.25;;
25153;SDS011;47555;51.038;6.280;2022-11-25T08:06:56;6.40;;;2.38;;
25153;SDS011;47555;51.038;6.280;2022-11-25T08:09:22;7.45;;;2.63;;
25153;SDS011;47555;51.038;6.280;2022-11-25T08:11:48;4.57;;;2.33;;
25153;SDS011;47555;51.038;6.280;2022-11-25T08:14:14;11.27;;;2.63;;
25153;SDS011;47555;51.038;6.280;2022-11-25T08:16:40;14.18;;;3.92;;
25153;SDS011;47555;51.038;6.280;2022-11-25T08:19:07;3.95;;;2.38;;
25153;SDS011;47555;51.038;6.280;2022-11-25T08:21:35;3.88;;;1.85;;
25153;SDS011;47555;51.038;6.280;2022-11-25T08:24:01;8.65;;;2.72;;
25153;SDS011;47555;51.038;6.280;2022-11-25T08:26:28;6.50;;;2.45;;
25153;SDS011;47555;51.038;6.280;2022-11-25T08:28:55;8.93;;;2.40;;
25153;SDS011;47555;51.038;6.280;2022-11-25T08:31:23;9.95;;;3.15;;
25153;SDS011;47555;51.038;6.280;2022-11-25T08:33:53;9.35;;;2.95;;
25153;SDS011;47555;51.038;6.280;2022-11-25T08:36:20;6.05;;;2.70;;
25153;SDS011;47555;51.038;6.280;2022-11-25T08:38:47;7.00;;;2.70;;
25153;SDS011;47555;51.038;6.280;2022-11-25T08:41:15;10.85;;;2.70;;
25153;SDS011;47555;51.038;6.280;2022-11-25T08:43:43;4.22;;;2.17;;
25153;SDS011;47555;51.038;6.280;2022-11-25T08:46:10;8.65;;;2.78;;
25153;SDS011;47555;51.038;6.280;2022-11-25T08:48:37;6.55;;;2.25;;
25153;SDS011;47555;51.038;6.280;2022-11-25T08:51:08;5.82;;;2.10;;
25153;SDS011;47555;51.038;6.280;2022-11-25T08:53:35;9.18;;;2.38;;
25153;SDS011;47555;51.038;6.280;2022-11-25T08:56:02;6.80;;;2.45;;
25153;SDS011;47555;51.038;6.280;2022-11-25T08:58:28;6.63;;;1.65;;
25153;SDS011;47555;51.038;6.280;2022-11-25T09:00:53;6.25;;;2.60;;
25153;SDS011;47555;51.038;6.280;2022-11-25T09:03:19;6.18;;;2.30;;
25153;SDS011;47555;51.038;6.280;2022-11-25T09:05:44;5.68;;;2.25;;
25153;SDS011;47555;51.038;6.280;2022-11-25T09:08:10;5.55;;;2.38;;
25153;SDS011;47555;51.038;6.280;2022-11-25T09:10:37;6.03;;;2.40;;
25153;SDS011;47555;51.038;6.280;2022-11-25T09:13:03;6.45;;;2.20;;
25153;SDS011;47555;51.038;6.280;2022-11-25T09:15:34;6.07;;;2.08;;
25153;SDS011;47555;51.038;6.280;2022-11-25T09:18:00;14.50;;;2.38;;
25153;SDS011;47555;51.038;6.280;2022-11-25T09:20:27;8.48;;;2.53;;
25153;SDS011;47555;51.038;6.280;2022-11-25T09:22:56;5.35;;;2.50;;
25153;SDS011;47555;51.038;6.280;2022-11-25T09:25:23;6.07;;;2.40;;
25153;SDS011;47555;51.038;6.280;2022-11-25T09:27:49;4.82;;;2.08;;
25153;SDS011;47555;51.038;6.280;2022-11-25T09:30:14;7.03;;;2.13;;
25153;SDS011;47555;51.038;6.280;2022-11-25T09:32:40;6.82;;;1.98;;
25153;SDS011;47555;51.038;6.280;2022-11-25T09:35:07;8.10;;;1.98;;
25153;SDS011;47555;51.038;6.280;2022-11-25T09:37:33;8.63;;;1.98;;
25153;SDS011;47555;51.038;6.280;2022-11-25T09:39:59;6.18;;;1.85;;
25153;SDS011;47555;51.038;6.280;2022-11-25T09:42:28;10.75;;;2.33;;
25153;SDS011;47555;51.038;6.280;2022-11-25T09:45:24;5.45;;;2.00;;
25153;SDS011;47555;51.038;6.280;2022-11-25T09:51:20;7.60;;;2.03;;
25153;SDS011;47555;51.038;6.280;2022-11-25T09:53:57;6.30;;;1.80;;
25153;SDS011;47555;51.038;6.280;2022-11-25T09:56:44;6.35;;;1.92;;
25153;SDS011;47555;51.038;6.280;2022-11-25T09:59:19;8.00;;;2.13;;
25153;SDS011;47555;51.038;6.280;2022-11-25T10:01:51;4.45;;;1.55;;
25153;SDS011;47555;51.038;6.280;2022-11-25T10:04:25;11.73;;;2.30;;
25153;SDS011;47555;51.038;6.280;2022-11-25T10:06:57;12.60;;;2.75;;
25153;SDS011;47555;51.038;6.280;2022-11-25T10:09:27;6.10;;;2.30;;
25153;SDS011;47555;51.038;6.280;2022-11-25T10:12:04;7.13;;;1.90;;
25153;SDS011;47555;51.038;6.280;2022-11-25T10:14:44;5.88;;;2.28;;
25153;SDS011;47555;51.038;6.280;2022-11-25T10:22:47;8.68;;;2.30;;
25153;SDS011;47555;51.038;6.280;2022-11-25T10:25:17;7.93;;;2.58;;
25153;SDS011;47555;51.038;6.280;2022-11-25T10:28:03;6.72;;;2.53;;
25153;SDS011;47555;51.038;6.280;2022-11-25T10:33:13;9.82;;;2.70;;
25153;SDS011;47555;51.038;6.280;2022-11-25T10:38:25;9.63;;;2.70;;
25153;SDS011;47555;51.038;6.280;2022-11-25T10:40:54;12.02;;;2.67;;
25153;SDS011;47555;51.038;6.280;2022-11-25T10:43:20;10.55;;;3.25;;
25153;SDS011;47555;51.038;6.280;2022-11-25T10:45:48;13.02;;;2.78;;
25153;SDS011;47555;51.038;6.280;2022-11-25T10:48:27;7.75;;;2.75;;
25153;SDS011;47555;51.038;6.280;2022-11-25T10:51:31;7.35;;;2.55;;
25153;SDS011;47555;51.038;6.280;2022-11-25T10:54:07;6.03;;;2.30;;
25153;SDS011;47555;51.038;6.280;2022-11-25T10:56:41;11.88;;;3.72;;
25153;SDS011;47555;51.038;6.280;2022-11-25T10:59:12;10.10;;;3.80;;
25153;SDS011;47555;51.038;6.280;2022-11-25T11:01:53;8.30;;;2.88;;
25153;SDS011;47555;51.038;6.280;2022-11-25T11:04:50;7.80;;;2.88;;
25153;SDS011;47555;51.038;6.280;2022-11-25T11:07:19;8.48;;;3.40;;
25153;SDS011;47555;51.038;6.280;2022-11-25T11:09:46;8.32;;;3.30;;
25153;SDS011;47555;51.038;6.280;2022-11-25T11:14:38;12.27;;;3.33;;
25153;SDS011;47555;51.038;6.280;2022-11-25T11:17:04;8.55;;;2.67;;
25153;SDS011;47555;51.038;6.280;2022-11-25T11:19:30;9.30;;;3.00;;
25153;SDS011;47555;51.038;6.280;2022-11-25T11:21:56;11.98;;;3.10;;
25153;SDS011;47555;51.038;6.280;2022-11-25T11:24:37;13.68;;;4.57;;
25153;SDS011;47555;51.038;6.280;2022-11-25T11:27:13;11.10;;;3.67;;
25153;SDS011;47555;51.038;6.280;2022-11-25T11:29:40;10.23;;;3.60;;
25153;SDS011;47555;51.038;6.280;2022-11-25T11:32:06;7.45;;;2.75;;
25153;SDS011;47555;51.038;6.280;2022-11-25T11:34:52;10.02;;;2.53;;
25153;SDS011;47555;51.038;6.280;2022-11-25T11:45:58;9.38;;;3.03;;
25153;SDS011;47555;51.038;6.280;2022-11-25T11:48:37;11.05;;;3.92;;
25153;SDS011;47555;51.038;6.280;2022-11-25T12:02:14;9.60;;;2.17;;
25153;SDS011;47555;51.038;6.280;2022-11-25T12:05:00;6.82;;;3.72;;
25153;SDS011;47555;51.038;6.280;2022-11-25T12:07:53;8.48;;;2.85;;
25153;SDS011;47555;51.038;6.280;2022-11-25T12:10:47;5.95;;;2.83;;
25153;SDS011;47555;51.038;6.280;2022-11-25T12:15:56;12.98;;;3.00;;
25153;SDS011;47555;51.038;6.280;2022-11-25T12:18:41;7.88;;;3.03;;
25153;SDS011;47555;51.038;6.280;2022-11-25T12:21:46;8.48;;;2.08;;
25153;SDS011;47555;51.038;6.280;2022-11-25T12:32:28;8.85;;;2.53;;
25153;SDS011;47555;51.038;6.280;2022-11-25T12:38:14;7.80;;;3.03;;
25153;SDS011;47555;51.038;6.280;2022-11-25T12:40:55;4.55;;;2.10;;
25153;SDS011;47555;51.038;6.280;2022-11-25T12:43:49;5.30;;;2.47;;
25153;SDS011;47555;51.038;6.280;2022-11-25T12:46:30;7.13;;;2.20;;
25153;SDS011;47555;51.038;6.280;2022-11-25T12:49:03;6.40;;;1.90;;
25153;SDS011;47555;51.038;6.280;2022-11-25T12:51:45;5.78;;;2.00;;
25153;SDS011;47555;51.038;6.280;2022-11-25T13:08:18;12.90;;;2.60;;
25153;SDS011;47555;51.038;6.280;2022-11-25T13:11:19;5.88;;;2.30;;
25153;SDS011;47555;51.038;6.280;2022-11-25T13:13:57;5.85;;;2.42;;
25153;SDS011;47555;51.038;6.280;2022-11-25T13:16:29;6.03;;;2.58;;
25153;SDS011;47555;51.038;6.280;2022-11-25T13:18:56;5.50;;;1.70;;
25153;SDS011;47555;51.038;6.280;2022-11-25T13:21:21;5.30;;;1.77;;
25153;SDS011;47555;51.038;6.280;2022-11-25T13:23:55;7.40;;;2.72;;
25153;SDS011;47555;51.038;6.280;2022-11-25T13:26:35;7.97;;;2.70;;
25153;SDS011;47555;51.038;6.280;2022-11-25T13:31:57;4.97;;;2.20;;
25153;SDS011;47555;51.038;6.280;2022-11-25T13:34:28;7.07;;;1.88;;
25153;SDS011;47555;51.038;6.280;2022-11-25T13:36:56;4.50;;;2.20;;
25153;SDS011;47555;51.038;6.280;2022-11-25T13:39:33;5.85;;;2.35;;
25153;SDS011;47555;51.038;6.280;2022-11-25T13:42:11;9.02;;;2.08;;
25153;SDS011;47555;51.038;6.280;2022-11-25T13:44:54;8.30;;;2.20;;
25153;SDS011;47555;51.038;6.280;2022-11-25T13:50:05;2.83;;;1.75;;
25153;SDS011;47555;51.038;6.280;2022-11-25T13:52:59;8.43;;;2.50;;
25153;SDS011;47555;51.038;6.280;2022-11-25T14:08:19;7.88;;;2.10;;
25153;SDS011;47555;51.038;6.280;2022-11-25T14:16:42;7.68;;;1.70;;
25153;SDS011;47555;51.038;6.280;2022-11-25T14:19:15;3.33;;;1.60;;
25153;SDS011;47555;51.038;6.280;2022-11-25T14:24:41;5.95;;;2.15;;
25153;SDS011;47555;51.038;6.280;2022-11-25T14:27:14;5.07;;;2.65;;
25153;SDS011;47555;51.038;6.280;2022-11-25T14:29:57;6.93;;;2.33;;
25153;SDS011;47555;51.038;6.280;2022-11-25T14:35:28;6.90;;;2.50;;
25153;SDS011;47555;51.038;6.280;2022-11-25T14:38:02;9.10;;;2.80;;
25153;SDS011;47555;51.038;6.280;2022-11-25T14:40:34;8.60;;;3.10;;
25153;SDS011;47555;51.038;6.280;2022-11-25T14:43:06;10.65;;;3.13;;
25153;SDS011;47555;51.038;6.280;2022-11-25T14:45:41;6.65;;;2.22;;
25153;SDS011;47555;51.038;6.280;2022-11-25T14:48:20;7.15;;;2.38;;
25153;SDS011;47555;51.038;6.280;2022-11-25T14:50:59;10.02;;;3.40;;
25153;SDS011;47555;51.038;6.280;2022-11-25T14:53:31;7.78;;;2.78;;
25153;SDS011;47555;51.038;6.280;2022-11-25T14:56:03;6.32;;;2.25;;
25153;SDS011;47555;51.038;6.280;2022-11-25T14:58:29;9.43;;;2.92;;
25153;SDS011;47555;51.038;6.280;2022-11-25T15:01:03;6.68;;;2.83;;
25153;SDS011;47555;51.038;6.280;2022-11-25T15:03:30;6.45;;;3.00;;
25153;SDS011;47555;51.038;6.280;2022-11-25T15:05:59;7.78;;;3.33;;
25153;SDS011;47555;51.038;6.280;2022-11-25T15:08:27;8.30;;;3.45;;
25153;SDS011;47555;51.038;6.280;2022-11-25T15:11:01;11.95;;;3.75;;
25153;SDS011;47555;51.038;6.280;2022-11-25T15:13:39;11.07;;;3.55;;
25153;SDS011;47555;51.038;6.280;2022-11-25T15:16:17;9.63;;;3.90;;
25153;SDS011;47555;51.038;6.280;2022-11-25T15:21:13;14.52;;;4.85;;
25153;SDS011;47555;51.038;6.280;2022-11-25T15:23:41;10.50;;;4.20;;
25153;SDS011;47555;51.038;6.280;2022-11-25T15:26:19;13.10;;;5.50;;
25153;SDS011;47555;51.038;6.280;2022-11-25T15:28:46;9.55;;;3.72;;
25153;SDS011;47555;51.038;6.280;2022-11-25T15:31:19;11.13;;;4.53;;
25153;SDS011;47555;51.038;6.280;2022-11-25T15:33:46;10.43;;;4.30;;
25153;SDS011;47555;51.038;6.280;2022-11-25T15:36:14;12.90;;;4.72;;
25153;SDS011;47555;51.038;6.280;2022-11-25T15:44:22;8.77;;;4.05;;
25153;SDS011;47555;51.038;6.280;2022-11-25T15:46:52;12.27;;;3.60;;
25153;SDS011;47555;51.038;6.280;2022-11-25T15:49:18;11.18;;;3.70;;
25153;SDS011;47555;51.038;6.280;2022-11-25T15:51:52;8.98;;;3.08;;
25153;SDS011;47555;51.038;6.280;2022-11-25T15:56:51;6.00;;;2.40;;
25153;SDS011;47555;51.038;6.280;2022-11-25T15:59:36;8.65;;;3.03;;
25153;SDS011;47555;51.038;6.280;2022-11-25T16:10:22;8.27;;;3.53;;
25153;SDS011;47555;51.038;6.280;2022-11-25T16:18:30;9.27;;;2.90;;
25153;SDS011;47555;51.038;6.280;2022-11-25T16:21:04;5.25;;;2.50;;
25153;SDS011;47555;51.038;6.280;2022-11-25T16:23:36;4.18;;;1.77;;
25153;SDS011;47555;51.038;6.280;2022-11-25T16:31:04;7.25;;;2.20;;
25153;SDS011;47555;51.038;6.280;2022-11-25T16:33:30;6.40;;;2.40;;
25153;SDS011;47555;51.038;6.280;2022-11-25T16:35:55;9.05;;;3.55;;
25153;SDS011;47555;51.038;6.280;2022-11-25T16:38:21;8.15;;;3.00;;
25153;SDS011;47555;51.038;6.280;2022-11-25T16:40:46;6.38;;;2.40;;
25153;SDS011;47555;51.038;6.280;2022-11-25T16:43:16;9.25;;;2.97;;
25153;SDS011;47555;51.038;6.280;2022-11-25T16:45:49;8.63;;;3.10;;
25153;SDS011;47555;51.038;6.280;2022-11-25T16:48:17;10.65;;;3.15;;
25153;SDS011;47555;51.038;6.280;2022-11-25T16:50:44;4.43;;;2.40;;
25153;SDS011;47555;51.038;6.280;2022-11-25T16:53:10;7.15;;;2.63;;
25153;SDS011;47555;51.038;6.280;2022-11-25T16:55:36;7.55;;;2.13;;
25153;SDS011;47555;51.038;6.280;2022-11-25T16:58:04;6.57;;;2.45;;
25153;SDS011;47555;51.038;6.280;2022-11-25T17:00:48;4.03;;;2.25;;
25153;SDS011;47555;51.038;6.280;2022-11-25T17:03:15;5.13;;;2.30;;
25153;SDS011;47555;51.038;6.280;2022-11-25T17:05:41;7.03;;;2.50;;
25153;SDS011;47555;51.038;6.280;2022-11-25T17:08:07;7.03;;;2.30;;
25153;SDS011;47555;51.038;6.280;2022-11-25T17:10:32;6.10;;;2.92;;